createdAt,value
2018-12-07T00:01:51.709Z,101151.13
2018-12-07T00:04:27.238Z,101148.94
2018-12-07T00:07:04.382Z,101145.87
2018-12-07T00:09:44.517Z,101134.95
2018-12-07T00:12:22.280Z,101121.36
2018-12-07T00:14:58.610Z,101117.86
2018-12-07T00:20:17.089Z,101113.03
2018-12-07T00:22:54.025Z,101106.05
2018-12-07T00:25:32.126Z,101110.86
2018-12-07T00:28:08.166Z,101113.91
2018-12-07T00:30:46.958Z,101111.73
2018-12-07T00:36:14.264Z,101102.09
2018-12-07T00:38:52.674Z,101108.66
2018-12-07T00:41:30.156Z,101097.30
2018-12-07T00:44:07.829Z,101098.59
2018-12-07T00:46:47.437Z,101099.91
2018-12-07T00:49:26.185Z,101097.28
2018-12-07T00:52:03.379Z,101095.52
2018-12-07T00:54:43.460Z,101084.15
2018-12-07T00:57:21.014Z,101085.88
2018-12-07T01:25:56.121Z,101062.67
2018-12-07T01:28:37.552Z,101063.11
2018-12-07T01:31:06.979Z,101053.04
2018-12-07T01:33:36.312Z,101059.17
2018-12-07T01:36:06.152Z,101051.71
2018-12-07T01:38:42.864Z,101058.73
2018-12-07T01:41:12.190Z,101051.71
2018-12-07T01:43:41.922Z,101053.48
2018-12-07T01:46:11.318Z,101052.17
2018-12-07T01:48:40.753Z,101049.96
2018-12-07T01:51:10.068Z,101051.72
2018-12-07T01:53:39.427Z,101050.41
2018-12-07T01:56:08.860Z,101039.45
2018-12-07T01:58:38.358Z,101041.20
2018-12-07T02:01:07.839Z,101042.97
2018-12-07T02:03:38.968Z,101031.16
2018-12-07T02:06:08.400Z,101032.44
2018-12-07T02:08:37.870Z,101034.21
2018-12-07T02:11:07.490Z,101035.52
2018-12-07T02:13:37.033Z,101028.05
2018-12-07T02:18:47.405Z,101025.88
2018-12-07T02:21:16.840Z,101020.63
2018-12-07T02:23:46.213Z,101018.87
2018-12-07T02:26:15.780Z,101010.12
2018-12-07T02:28:45.258Z,101020.16
2018-12-07T02:31:14.708Z,101017.53
2018-12-07T02:33:44.062Z,101011.41
2018-12-07T02:36:13.492Z,101004.39
2018-12-07T02:38:43.122Z,101000.45
2018-12-07T02:41:12.619Z,100995.63
2018-12-07T02:43:41.937Z,101000.44
2018-12-07T02:46:11.409Z,100987.74
2018-12-07T02:48:40.889Z,100986.42
2018-12-07T02:51:10.346Z,100985.12
2018-12-07T02:53:39.976Z,100974.61
2018-12-07T02:56:10.324Z,100974.58
2018-12-07T02:58:39.720Z,100963.65
2018-12-07T03:01:09.217Z,100961.89
2018-12-07T03:03:38.587Z,100960.58
2018-12-07T03:06:08.019Z,100957.05
2018-12-07T03:08:37.335Z,100953.55
2018-12-07T03:11:06.765Z,100951.38
2018-12-07T03:13:36.079Z,100942.63
2018-12-07T03:16:06.185Z,100936.05
2018-12-07T03:18:35.545Z,100942.17
2018-12-07T03:21:05.072Z,100937.78
2018-12-07T03:23:34.484Z,100937.78
2018-12-07T03:26:03.969Z,100934.28
2018-12-07T03:28:33.401Z,100938.68
2018-12-07T03:31:02.843Z,100938.68
2018-12-07T03:33:32.325Z,100938.68
2018-12-07T03:36:01.660Z,100933.42
2018-12-07T03:38:30.971Z,100925.95
2018-12-07T03:41:00.301Z,100920.70
2018-12-07T03:43:29.612Z,100921.59
2018-12-07T03:45:58.964Z,100917.65
2018-12-07T03:48:28.285Z,100904.06
2018-12-07T03:50:57.644Z,100901.02
2018-12-07T03:53:27.561Z,100900.12
2018-12-07T03:55:56.994Z,100903.64
2018-12-07T03:58:26.480Z,100900.12
2018-12-07T04:00:55.802Z,100892.23
2018-12-07T04:03:25.141Z,100892.23
2018-12-07T04:11:23.467Z,100818.42
2018-12-07T04:13:53.665Z,100883.45
2018-12-07T04:16:23.165Z,100879.96
2018-12-07T04:18:52.524Z,100876.43
2018-12-07T04:21:22.776Z,100869.89
2018-12-07T04:23:52.113Z,100853.25
2018-12-07T04:26:22.106Z,100857.62
2018-12-07T04:28:51.433Z,100848.00
2018-12-07T04:31:20.776Z,100840.53
2018-12-07T04:33:50.128Z,100826.11
2018-12-07T04:36:19.440Z,100831.78
2018-12-07T04:38:48.768Z,100825.66
2018-12-07T04:41:18.147Z,100824.38
2018-12-07T04:43:47.463Z,100828.28
2018-12-07T04:46:16.762Z,100818.22
2018-12-07T04:48:46.129Z,100816.04
2018-12-07T04:51:15.491Z,100817.36
2018-12-07T04:53:44.824Z,100808.61
2018-12-07T04:56:14.242Z,100817.77
2018-12-07T04:58:43.557Z,100814.73
2018-12-07T05:01:13.006Z,100812.97
2018-12-07T05:03:42.338Z,100815.17
2018-12-07T05:06:11.686Z,100802.90
2018-12-07T05:08:41.052Z,100798.95
2018-12-07T05:11:10.384Z,100793.25
2018-12-07T05:13:39.742Z,100789.30
2018-12-07T05:16:09.099Z,100785.81
2018-12-07T05:18:38.725Z,100781.42
2018-12-07T05:21:08.052Z,100773.13
2018-12-07T05:23:37.366Z,100768.31
2018-12-07T05:26:06.685Z,100769.18
2018-12-07T05:28:36.027Z,100767.00
2018-12-07T05:31:06.804Z,100767.42
2018-12-07T05:33:36.162Z,100767.00
2018-12-07T05:36:06.212Z,100774.89
2018-12-07T05:38:35.625Z,100762.20
2018-12-07T05:41:06.240Z,100751.23
2018-12-07T05:43:35.730Z,100756.52
2018-12-07T05:46:06.312Z,100756.97
2018-12-07T05:48:35.637Z,100749.50
2018-12-07T05:51:05.069Z,100754.80
2018-12-07T05:53:34.483Z,100738.16
2018-12-07T05:56:03.812Z,100738.16
2018-12-07T05:58:33.154Z,100722.39
2018-12-07T06:01:02.601Z,100720.22
2018-12-07T06:03:31.958Z,100723.26
2018-12-07T06:06:01.417Z,100726.78
2018-12-07T06:08:30.750Z,100722.39
2018-12-07T06:11:00.080Z,100719.80
2018-12-07T06:13:29.453Z,100708.84
2018-12-07T06:15:58.788Z,100705.34
2018-12-07T06:18:28.232Z,100704.91
2018-12-07T06:20:57.544Z,100700.09
2018-12-07T06:23:27.148Z,100696.16
2018-12-07T06:25:56.470Z,100685.64
2018-12-07T06:28:25.885Z,100684.78
2018-12-07T06:30:55.317Z,100684.33
2018-12-07T06:33:24.762Z,100679.08
2018-12-07T06:35:54.094Z,100669.02
2018-12-07T06:38:23.429Z,100670.33
2018-12-07T06:40:52.769Z,100656.75
2018-12-07T06:43:22.144Z,100664.17
2018-12-07T06:45:51.477Z,100661.14
2018-12-07T06:48:21.476Z,100655.88
2018-12-07T06:50:50.860Z,100653.25
2018-12-07T06:53:20.229Z,100653.66
2018-12-07T06:55:49.564Z,100649.73
2018-12-07T06:58:18.909Z,100646.23
2018-12-07T07:00:48.362Z,100637.04
2018-12-07T07:03:17.761Z,100637.91
2018-12-07T07:05:47.193Z,100637.91
2018-12-07T07:08:16.538Z,100630.02
2018-12-07T07:10:45.853Z,100628.71
2018-12-07T07:13:15.198Z,100626.08
2018-12-07T07:15:44.566Z,100618.65
2018-12-07T07:18:13.904Z,100626.98
2018-12-07T07:20:43.228Z,100625.22
2018-12-07T07:23:12.634Z,100617.34
2018-12-07T07:25:41.993Z,100616.89
2018-12-07T07:28:11.298Z,100602.02
2018-12-07T07:30:40.740Z,100597.63
2018-12-07T07:33:10.077Z,100597.18
2018-12-07T07:35:39.401Z,100591.52
2018-12-07T07:38:08.806Z,100597.63
2018-12-07T07:40:38.160Z,100584.05
2018-12-07T07:43:07.480Z,100581.87
2018-12-07T07:45:36.830Z,100573.98
2018-12-07T07:48:06.182Z,100571.80
2018-12-07T07:50:35.558Z,100573.53
2018-12-07T07:53:06.219Z,100565.23
2018-12-07T07:55:35.568Z,100570.91
2018-12-07T07:58:06.245Z,100562.61
2018-12-07T08:00:35.628Z,100559.09
2018-12-07T08:03:06.305Z,100545.50
2018-12-07T08:05:35.629Z,100543.32
2018-12-07T08:08:05.084Z,100538.06
2018-12-07T08:10:34.435Z,100537.20
2018-12-07T08:13:03.759Z,100530.19
2018-12-07T08:15:33.093Z,100536.75
2018-12-07T08:18:02.595Z,100532.36
2018-12-07T08:20:31.938Z,100522.30
2018-12-07T08:23:01.858Z,100524.93
2018-12-07T08:25:31.294Z,100520.54
2018-12-07T08:28:00.609Z,100510.02
2018-12-07T08:30:30.026Z,100513.52
2018-12-07T08:32:59.471Z,100506.48
2018-12-07T08:35:28.892Z,100497.73
2018-12-07T08:37:58.196Z,100488.96
2018-12-07T08:40:27.615Z,100492.90
2018-12-07T08:42:56.960Z,100488.96
2018-12-07T08:45:26.393Z,100478.89
2018-12-07T08:47:55.749Z,100480.22
2018-12-07T08:50:25.210Z,100478.04
2018-12-07T08:52:55.217Z,100472.78
2018-12-07T08:55:24.760Z,100469.30
2018-12-07T08:57:54.412Z,100466.67
2018-12-07T09:00:23.947Z,100458.79
2018-12-07T09:02:53.256Z,100455.75
2018-12-07T09:05:22.725Z,100451.81
2018-12-07T09:07:52.053Z,100447.42
2018-12-07T09:10:22.536Z,100441.27
2018-12-07T09:12:51.841Z,100433.83
2018-12-07T09:15:21.728Z,100430.30
2018-12-07T09:17:51.081Z,100424.59
2018-12-07T09:20:20.428Z,100407.55
2018-12-07T09:22:49.752Z,100402.70
2018-12-07T09:25:19.075Z,100400.94
2018-12-07T09:27:48.539Z,100402.65
2018-12-07T09:30:17.865Z,100396.52
2018-12-07T09:32:47.184Z,100386.88
2018-12-07T09:35:16.614Z,100378.12
2018-12-07T09:37:45.945Z,100370.25
2018-12-07T09:40:15.356Z,100370.25
2018-12-07T09:42:44.670Z,100366.72
2018-12-07T09:45:14.011Z,100356.66
2018-12-07T09:47:43.778Z,100349.23
2018-12-07T09:50:13.230Z,100354.03
2018-12-07T09:52:42.564Z,100347.88
2018-12-07T09:55:11.884Z,100343.48
2018-12-07T09:57:41.241Z,100334.28
2018-12-07T10:00:10.779Z,100328.16
2018-12-07T10:02:40.103Z,100320.27
2018-12-07T10:05:09.604Z,100330.84
2018-12-07T10:07:38.959Z,100307.19
2018-12-07T10:10:09.108Z,100310.67
2018-12-07T10:12:38.507Z,100308.06
2018-12-07T10:15:08.553Z,100298.02
2018-12-07T10:17:37.890Z,100296.70
2018-12-07T10:20:07.413Z,100290.57
2018-12-07T10:22:37.926Z,100301.48
2018-12-07T10:25:07.791Z,100298.40
2018-12-07T10:27:37.121Z,100286.56
2018-12-07T10:30:06.653Z,100287.44
2018-12-07T10:32:36.001Z,100290.52
2018-12-07T10:35:06.577Z,100278.28
2018-12-07T10:37:35.901Z,100267.34
2018-12-07T10:40:05.885Z,100291.45
2018-12-07T10:42:35.201Z,100276.14
2018-12-07T10:45:05.128Z,100273.97
2018-12-07T10:47:34.473Z,100268.73
2018-12-07T10:50:04.248Z,100256.09
2018-12-07T10:52:33.568Z,100258.67
2018-12-07T10:55:02.900Z,100256.91
2018-12-07T10:57:32.238Z,100247.30
2018-12-07T11:00:01.599Z,100238.95
2018-12-07T11:02:38.202Z,100231.94
2018-12-07T11:05:12.998Z,100234.16
2018-12-07T11:07:47.460Z,100223.17
2018-12-07T11:10:22.044Z,100225.80
2018-12-07T11:12:56.530Z,100215.72
2018-12-07T11:15:31.089Z,100209.15
2018-12-07T11:20:00.807Z,100212.48
2018-12-07T11:22:35.261Z,100190.22
2018-12-07T11:25:10.260Z,100196.37
2018-12-07T11:27:44.848Z,100172.69
2018-12-07T11:30:21.653Z,100182.78
2018-12-07T11:32:56.245Z,100180.16
2018-12-07T11:38:11.180Z,100148.69
2018-12-07T11:40:40.497Z,100139.03
2018-12-07T11:43:09.877Z,100136.34
2018-12-07T11:45:39.313Z,100134.55
2018-12-07T11:48:09.096Z,100115.25
2018-12-07T11:50:38.459Z,100107.81
2018-12-07T11:53:07.812Z,100095.14
2018-12-07T11:55:37.166Z,100083.33
2018-12-07T11:58:08.278Z,100083.41
2018-12-07T12:00:38.344Z,100072.50
2018-12-07T12:03:07.792Z,100066.35
2018-12-07T12:05:37.314Z,100065.49
2018-12-07T12:08:06.632Z,100061.55
2018-12-07T12:10:38.084Z,100047.55
2018-12-07T12:13:07.445Z,100045.31
2018-12-07T12:15:36.808Z,100032.18
2018-12-07T12:18:06.276Z,100029.08
2018-12-07T12:20:35.649Z,100024.23
2018-12-07T12:23:06.239Z,100029.08
2018-12-07T12:25:35.660Z,100011.59
2018-12-07T12:28:07.843Z,100002.03
2018-12-07T12:30:37.204Z,99996.69
2018-12-07T12:33:06.570Z,99995.38
2018-12-07T12:35:36.019Z,99999.27
2018-12-07T12:38:06.194Z,99989.20
2018-12-07T12:40:35.664Z,99986.56
2018-12-07T12:43:06.139Z,99969.05
2018-12-07T12:45:35.609Z,99964.70
2018-12-07T12:48:06.214Z,99961.24
2018-12-07T12:50:36.829Z,99945.95
2018-12-07T12:53:06.763Z,99936.81
2018-12-07T12:55:36.217Z,99942.92
2018-12-07T12:58:06.597Z,99931.98
2018-12-07T13:00:36.029Z,99938.14
2018-12-07T13:03:06.187Z,99916.69
2018-12-07T13:05:35.521Z,99913.19
2018-12-07T13:08:06.113Z,99902.68
2018-12-07T13:10:35.442Z,99904.88
2018-12-07T13:13:06.051Z,99901.77
2018-12-07T13:15:35.400Z,99894.80
2018-12-07T13:18:04.830Z,99884.29
2018-12-07T13:20:34.162Z,99879.89
2018-12-07T13:23:03.522Z,99880.75
2018-12-07T13:25:32.861Z,99868.93
2018-12-07T13:28:02.253Z,99848.19
2018-12-07T13:30:31.681Z,99846.17
2018-12-07T13:33:01.069Z,99854.06
2018-12-07T13:35:30.406Z,99849.20
2018-12-07T13:37:59.761Z,99844.41
2018-12-07T13:40:29.225Z,99826.89
2018-12-07T13:42:58.760Z,99820.77
2018-12-07T13:45:28.223Z,99811.95
2018-12-07T13:47:57.877Z,99793.64
2018-12-07T13:50:32.703Z,99800.20
2018-12-07T13:53:02.174Z,99800.23
2018-12-07T13:55:31.872Z,99798.45
2018-12-07T13:58:01.378Z,99779.67
2018-12-07T14:00:30.910Z,99768.70
2018-12-07T14:03:00.471Z,99765.16
2018-12-07T14:05:32.370Z,99758.97
2018-12-07T14:08:01.476Z,99757.63
2018-12-07T14:10:31.021Z,99753.23
2018-12-07T14:13:00.516Z,99745.81
2018-12-07T14:15:30.113Z,99742.35
2018-12-07T14:17:59.630Z,99724.05
2018-12-07T14:20:29.188Z,99730.27
2018-12-07T14:22:58.635Z,99729.53
2018-12-07T14:25:28.885Z,99711.69
2018-12-07T14:30:38.566Z,99705.61
2018-12-07T14:33:07.941Z,99692.90
2018-12-07T14:35:37.617Z,99688.58
2018-12-07T14:38:07.113Z,99677.70
2018-12-07T14:40:36.527Z,99671.16
2018-12-07T14:43:06.469Z,99672.99
2018-12-07T14:45:36.110Z,99669.94
2018-12-07T14:48:06.364Z,99660.37
2018-12-07T14:50:35.764Z,99661.70
2018-12-07T14:53:06.400Z,99659.99
2018-12-07T14:55:35.863Z,99649.52
2018-12-07T14:58:06.130Z,99647.38
2018-12-07T15:00:35.683Z,99645.20
2018-12-07T15:03:07.621Z,99636.50
2018-12-07T15:05:36.981Z,99635.67
2018-12-07T15:08:06.604Z,99616.94
2018-12-07T15:10:36.450Z,99623.23
2018-12-07T15:13:06.544Z,99610.67
2018-12-07T15:15:36.263Z,99605.00
2018-12-07T15:18:06.671Z,99600.20
2018-12-07T15:20:36.187Z,99591.04
2018-12-07T15:23:06.409Z,99594.60
2018-12-07T15:25:35.817Z,99588.90
2018-12-07T15:28:06.417Z,99579.70
2018-12-07T15:30:35.864Z,99578.00
2018-12-07T15:33:06.444Z,99574.09
2018-12-07T15:35:35.876Z,99569.30
2018-12-07T15:38:06.719Z,99564.53
2018-12-07T15:40:36.185Z,99564.07
2018-12-07T15:43:06.272Z,99544.86
2018-12-07T15:45:35.818Z,99542.70
2018-12-07T15:48:06.346Z,99544.92
2018-12-07T15:50:35.791Z,99537.05
2018-12-07T15:53:06.252Z,99530.97
2018-12-07T15:55:35.741Z,99519.16
2018-12-07T15:58:06.407Z,99521.42
2018-12-07T16:00:36.039Z,99514.45
2018-12-07T16:03:06.432Z,99510.09
2018-12-07T16:05:37.751Z,99509.27
2018-12-07T16:08:07.490Z,99497.94
2018-12-07T16:13:17.368Z,99485.72
2018-12-07T16:15:47.705Z,99477.85
2018-12-07T16:18:17.242Z,99483.50
2018-12-07T16:20:46.688Z,99474.38
2018-12-07T16:23:16.107Z,99460.37
2018-12-07T16:25:45.913Z,99462.59
2018-12-07T16:28:15.487Z,99460.80
2018-12-07T16:30:45.104Z,99460.34
2018-12-07T16:33:14.671Z,99452.49
2018-12-07T16:35:44.036Z,99445.99
2018-12-07T16:38:13.471Z,99447.73
2018-12-07T16:40:43.062Z,99455.60
2018-12-07T16:43:12.841Z,99444.25
2018-12-07T16:45:42.476Z,99440.38
2018-12-07T16:48:11.965Z,99431.22
2018-12-07T16:50:41.997Z,99442.17
2018-12-07T16:53:11.485Z,99435.19
2018-12-07T16:55:41.267Z,99449.61
2018-12-07T16:58:11.931Z,99451.38
2018-12-07T17:00:41.453Z,99545.92
2018-12-07T17:03:10.877Z,99547.50
2018-12-07T17:05:40.348Z,99556.67
2018-12-07T17:08:09.713Z,99557.78
2018-12-07T17:10:39.264Z,99552.50
2018-12-07T17:13:09.015Z,99567.99
2018-12-07T17:15:40.343Z,99570.39
2018-12-07T17:18:10.307Z,99580.58
2018-12-07T17:20:40.144Z,99591.56
2018-12-07T17:23:09.871Z,99593.45
2018-12-07T17:25:40.891Z,99593.61
2018-12-07T17:28:10.777Z,99593.80
2018-12-07T17:30:40.645Z,99613.93
2018-12-07T17:33:10.206Z,99605.73
2018-12-07T17:35:39.746Z,99613.19
2018-12-07T17:38:09.612Z,99602.41
2018-12-07T17:40:39.488Z,99595.99
2018-12-07T17:43:09.086Z,99600.94
2018-12-07T17:45:38.868Z,99624.05
2018-12-07T17:48:08.887Z,99626.31
2018-12-07T17:50:38.925Z,99636.80
2018-12-07T17:53:08.747Z,99643.37
2018-12-07T17:55:38.535Z,99657.34
2018-12-07T17:58:08.130Z,99656.53
2018-12-07T18:00:38.370Z,99660.53
2018-12-07T18:03:08.080Z,99657.16
2018-12-07T18:05:37.558Z,99665.47
2018-12-07T18:08:07.370Z,99673.34
2018-12-07T18:10:36.923Z,99687.31
2018-12-07T18:13:06.529Z,99699.51
2018-12-07T18:15:35.936Z,99695.18
2018-12-07T18:18:07.995Z,99693.46
2018-12-07T18:20:37.797Z,99710.00
2018-12-07T18:23:07.766Z,99700.46
2018-12-07T18:25:37.121Z,99715.25
2018-12-07T18:28:07.121Z,99700.94
2018-12-07T18:30:36.765Z,99714.42
2018-12-07T18:33:06.234Z,99716.61
2018-12-07T18:35:35.828Z,99714.89
2018-12-07T18:38:06.305Z,99730.98
2018-12-07T18:40:35.890Z,99732.73
2018-12-07T18:43:06.531Z,99728.84
2018-12-07T18:45:35.948Z,99729.70
2018-12-07T18:48:06.498Z,99730.14
2018-12-07T18:50:38.667Z,99741.02
2018-12-07T18:53:08.181Z,99745.40
2018-12-07T18:55:37.845Z,99748.45
2018-12-07T18:58:07.208Z,99750.61
2018-12-07T19:00:36.773Z,99755.38
2018-12-07T19:03:06.397Z,99764.07
2018-12-07T19:05:36.010Z,99775.36
2018-12-07T19:08:06.418Z,99786.22
2018-12-07T19:10:35.899Z,99791.02
2018-12-07T19:13:06.517Z,99780.13
2018-12-07T19:15:35.939Z,99774.52
2018-12-07T19:18:06.104Z,99777.57
2018-12-07T19:20:35.603Z,99784.05
2018-12-07T19:23:06.903Z,99786.22
2018-12-07T19:25:36.995Z,99803.19
2018-12-07T19:28:07.144Z,99811.02
2018-12-07T19:30:37.020Z,99814.06
2018-12-07T19:33:07.034Z,99815.81
2018-12-07T19:35:36.846Z,99819.27
2018-12-07T19:38:06.453Z,99823.20
2018-12-07T19:40:35.916Z,99823.64
2018-12-07T19:43:07.153Z,99836.70
2018-12-07T19:45:36.979Z,99847.56
2018-12-07T19:48:06.551Z,99842.77
2018-12-07T19:50:37.008Z,99845.83
2018-12-07T19:53:07.217Z,99858.87
2018-12-07T19:55:36.993Z,99850.60
2018-12-07T19:58:07.149Z,99850.59
2018-12-07T20:00:37.739Z,99842.78
2018-12-07T20:03:07.618Z,99848.86
2018-12-07T20:05:37.539Z,99851.91
2018-12-07T20:08:09.071Z,99870.59
2018-12-07T20:13:12.430Z,99872.73
2018-12-07T20:15:42.240Z,99869.30
2018-12-07T20:18:11.989Z,99881.02
2018-12-07T20:20:41.721Z,99895.78
2018-12-07T20:23:11.322Z,99894.05
2018-12-07T20:28:11.997Z,99897.97
2018-12-07T20:30:41.815Z,99902.33
2018-12-07T20:33:13.228Z,99904.48
2018-12-07T20:35:43.132Z,99914.05
2018-12-07T20:38:13.241Z,99911.44
2018-12-07T20:40:44.486Z,99912.77
2018-12-07T20:43:17.365Z,99924.91
2018-12-07T20:45:47.277Z,99946.20
2018-12-07T20:48:17.195Z,99958.36
2018-12-07T20:50:46.700Z,99953.59
2018-12-07T20:53:16.127Z,99961.84
2018-12-07T20:55:45.780Z,99967.94
2018-12-07T20:58:15.983Z,99971.42
2018-12-07T21:00:45.344Z,99958.35
2018-12-07T21:03:14.861Z,99957.94
2018-12-07T21:08:04.472Z,99967.03
2018-12-07T21:11:12.867Z,99978.70
2018-12-07T21:17:13.318Z,99979.08
2018-12-07T21:20:21.567Z,99974.30
2018-12-07T21:22:51.043Z,99974.28
2018-12-07T21:25:20.419Z,99982.52
2018-12-07T21:27:49.713Z,99988.61
2018-12-07T21:30:54.989Z,99984.28
2018-12-07T21:34:10.829Z,99975.13
2018-12-07T21:36:41.966Z,99991.20
2018-12-07T21:39:55.357Z,99996.41
2018-12-07T21:42:31.747Z,100008.16
2018-12-07T21:45:01.121Z,100002.97
2018-12-07T21:48:37.026Z,100003.80
2018-12-07T21:51:26.500Z,100008.12
2018-12-07T21:53:55.920Z,100005.48
2018-12-07T21:56:25.334Z,100009.41
2018-12-07T21:58:54.945Z,100018.92
2018-12-07T22:01:24.444Z,100012.84
2018-12-07T22:03:54.106Z,100014.14
2018-12-07T22:06:25.335Z,100014.98
2018-12-07T22:08:54.726Z,100020.20
2018-12-07T22:11:24.174Z,100015.86
2018-12-07T22:13:53.590Z,100022.83
2018-12-07T22:16:23.087Z,100033.23
2018-12-07T22:18:52.637Z,100029.34
2018-12-07T22:21:22.067Z,100031.94
2018-12-07T22:23:51.517Z,100047.98
2018-12-07T22:26:21.032Z,100043.70
2018-12-07T22:28:50.867Z,100045.47
2018-12-07T22:31:20.540Z,100049.42
2018-12-07T22:33:50.352Z,100048.98
2018-12-07T22:36:19.842Z,100054.19
2018-12-07T22:38:49.458Z,100059.36
2018-12-07T22:41:19.226Z,100061.05
2018-12-07T22:43:48.738Z,100059.73
2018-12-07T22:46:18.257Z,100060.98
2018-12-07T22:48:47.699Z,100062.27
2018-12-07T22:54:01.007Z,100068.76
2018-12-07T22:56:31.639Z,100070.11
2018-12-07T22:59:00.998Z,100063.17
2018-12-07T23:01:30.578Z,100072.69
2018-12-07T23:03:59.925Z,100067.04
2018-12-07T23:06:30.232Z,100066.19
2018-12-07T23:08:59.588Z,100059.23
2018-12-07T23:11:28.989Z,100067.92
2018-12-07T23:13:58.357Z,100068.80
2018-12-07T23:16:29.894Z,100051.42
2018-12-07T23:18:59.108Z,100054.48
2018-12-07T23:21:28.469Z,100057.51
2018-12-07T23:23:57.885Z,100062.72
2018-12-07T23:26:27.252Z,100066.20
2018-12-07T23:31:46.463Z,100065.39
2018-12-07T23:34:16.256Z,100064.98
2018-12-07T23:36:45.829Z,100071.08
2018-12-07T23:39:15.153Z,100074.08
2018-12-07T23:41:44.597Z,100073.22
2018-12-07T23:44:14.028Z,100068.84
2018-12-07T23:46:45.996Z,100065.34
2018-12-07T23:49:15.452Z,100066.64
2018-12-07T23:51:46.758Z,100068.36
2018-12-07T23:54:16.117Z,100067.48
2018-12-07T23:56:45.524Z,100071.36
2018-12-07T23:59:14.897Z,100069.17
